Terminal Aerodrome Forecast
Issued by NWS

Home | Current Version | Previous Version | Text Only | Print | Product List | Glossary On
Versions: 1 2 3 4 5 6 7 8 9 10 11 12 13 14 15 16 17 18 19
000
FTUS41 KBOX 150538
TAFHYA
TAF
KHYA 150538Z 1506/1606 28008KT P6SM SKC
     FM151200 29006KT P6SM SCT250
     FM151700 24006KT P6SM BKN110
     FM160000 VRB03KT 2SM -SN OVC020
     FM160300 35004KT 1/2SM SN OVC005
     FM160500 31010KT 1SM -SN OVC008=

USA.gov is the U.S. government's official web portal to all federal, state and local government web resources and services.